ADDS METAR Data INFO
IDs: Format: Raw Decoded Include TAF

Data at: 0218 UTC 18 Jan 2018

PAMM 180156Z AUTO 09014G19KT 10SM -RA BKN041 06/03 A2916 RMK AO2 SLP866 T00610033 PNO $
PAMM 180056Z AUTO 08014G22KT 10SM -RA OVC045 06/03 A2916 RMK AO2 SLP865 T00610028 PNO $
PAMM 172256Z AUTO 09020G24KT 5SM -RA FEW028 OVC043 06/03 A2917 RMK AO2 PK WND 09027/2213 SLP869 T00560028 PNO $
PAMM 171856Z AUTO 08019G28KT 10SM -RA OVC049 06/02 A2939 RMK AO2 PK WND 07028/1850 SLP942 T00610022 PNO $
PAMM 171756Z AUTO 07010G17KT 10SM -RA BKN045 OVC050 06/02 A2944 RMK AO2 SLP960 6//// T00560022 10056 20050 56052 PNO $
PAMM 171656Z AUTO 07012KT 10SM -RA FEW020 OVC050 06/02 A2948 RMK AO2 SLP974 T00560022 PNO $
PAMM 171556Z AUTO 08012G16KT 10SM -RA OVC048 06/02 A2954 RMK AO2 SLP993 T00560022 PNO $
PAMM 171456Z AUTO 07012G16KT 10SM -RA BKN036 OVC048 06/02 A2959 RMK AO2 SLP012 6//// T00560022 56055 PNO $
PAMM 171356Z AUTO 09012G17KT 10SM -RA FEW046 OVC060 06/02 A2964 RMK AO2 RAE12B50 SLP029 T00560022 PNO $
PAMM 171256Z AUTO 09012G17KT 10SM -RA BKN038 BKN075 05/03 A2970 RMK AO2 PRESFR SLP048 T00500028 PNO $
PAMM 171156Z AUTO 09008KT 10SM -RA OVC032 06/02 A2975 RMK AO2 SLP066 6//// 7//// T00560022 10072 20044 58020 PNO $
PAMM 171056Z AUTO VRB03KT 10SM -RA OVC023 04/02 A2980 RMK AO2 RAB05 SLP081 T00440022 PNO $
PAMM 170956Z AUTO 14008G14KT 10SM SCT024 BKN039 OVC055 07/02 A2981 RMK AO2 SLP086 T00670017 $
PAMM 170940Z AUTO 12007G16KT 090V150 10SM BKN024 BKN032 BKN120 07/02 A2982 RMK AO2 $
PAMM 170856Z AUTO 14009G19KT 110V170 10SM FEW043 07/02 A2982 RMK AO2 SLP090 60000 T00670017 50000 $
PAMM 170841Z AUTO 12013G17KT 10SM SCT025 BKN085 06/02 A2982 RMK AO2 $
PAMM 170556Z AUTO 13008KT 10SM BKN021 07/03 A2982 RMK AO2 SLP090 60000 T00670028 10083 20056 51006 $
PAMM 170456Z AUTO 13010G18KT 10SM OVC021 06/03 A2982 RMK AO2 RAE55 SLP089 P0000 T00610033 $
PAMM 170356Z AUTO 15010G15KT 10SM -RA BKN024 OVC032 06/03 A2982 RMK AO2 SLP089 P0000 T00560033 $
PAMM 170215Z AUTO 13010KT 7SM -RA BKN027 OVC036 07/03 A2981 RMK AO2 P0000 $
PAMM 170156Z AUTO 11012G18KT 10SM -RA SCT027 BKN036 BKN075 08/03 A2980 RMK AO2 RAB30 SLP082 P0000 T00780033 $
PAMM 170017Z AUTO 13011G18KT 10SM FEW025 SCT030 08/03 A2979 RMK AO2 $
PAMM 162356Z AUTO 14011G21KT 10SM BKN027 08/03 A2979 RMK AO2 RAE15 SLP079 P0000 60000 T00830033 10094 20072 53003 $
PAMM 162256Z AUTO 14009G14KT 10SM -RA BKN023 OVC033 08/04 A2979 RMK AO2 RAE2157B23E35B53 SLP077 P0000 T00780044 $
PAMM 162156Z AUTO 11016G25KT 10SM -RA OVC029 08/03 A2978 RMK AO2 SLP074 P0000 T00780033 $
PAMM 162111Z AUTO 14009G17KT 10SM -RA BKN029 OVC033 08/04 A2978 RMK AO2 P0000 $
PAMM 162056Z AUTO 16006G15KT 10SM -RA BKN031 OVC042 08/04 A2978 RMK AO2 SLP076 P0000 60000 T00780044 51004 $
PAMM 161856Z AUTO 12008G20KT 10SM OVC034 09/03 A2978 RMK AO2 SLP075 T00940033 $
PAMM 161756Z AUTO 15010G21KT 120V190 10SM BKN030 OVC038 09/04 A2977 RMK AO2 RAB1658E14B31E41 SLP072 P0000 60000 T00890039 10089 20072 53021 $
PAMM 161556Z AUTO 13011G23KT 10SM OVC024 09/04 A2972 RMK AO2 PK WND 13026/1535 SLP056 T00890044 $
PAMM 161456Z AUTO 15013G24KT 130V190 10SM BKN026 BKN032 BKN085 09/04 A2971 RMK AO2 PK WND 14030/1446 SLP050 60000 T00890044 51033 $
PAMM 161441Z AUTO 14010G24KT 10SM BKN026 OVC080 08/04 A2970 RMK AO2 $